createdAt,value
2019-05-25T00:01:14.074Z,5.97
2019-05-25T00:03:41.019Z,9.70
2019-05-25T00:06:08.001Z,8.70
2019-05-25T00:08:35.220Z,8.30
2019-05-25T00:11:02.039Z,10.23
2019-05-25T00:13:28.760Z,7.47
2019-05-25T00:15:56.145Z,7.47
2019-05-25T00:18:23.092Z,11.08
2019-05-25T00:20:50.337Z,10.00
2019-05-25T00:23:17.398Z,11.28
2019-05-25T00:25:44.748Z,10.98
2019-05-25T00:28:11.780Z,8.48
2019-05-25T00:30:38.732Z,9.13
2019-05-25T00:33:05.872Z,9.60
2019-05-25T00:35:33.364Z,9.75
2019-05-25T00:38:00.423Z,9.75
2019-05-25T00:40:27.859Z,9.98
2019-05-25T00:42:55.210Z,10.95
2019-05-25T00:45:22.969Z,12.63
2019-05-25T00:47:49.629Z,11.80
2019-05-25T00:50:21.169Z,9.78
2019-05-25T00:52:49.784Z,13.62
2019-05-25T00:55:16.863Z,11.53
2019-05-25T00:57:44.033Z,15.38
2019-05-25T01:00:11.657Z,11.43
2019-05-25T01:02:40.285Z,13.32
2019-05-25T01:05:08.146Z,12.78
2019-05-25T01:07:35.295Z,17.75
2019-05-25T01:10:03.332Z,16.87
2019-05-25T01:12:30.507Z,15.20
2019-05-25T01:14:57.486Z,18.17
2019-05-25T01:17:24.299Z,14.87
2019-05-25T01:19:51.657Z,17.32
2019-05-25T01:22:19.852Z,16.80
2019-05-25T01:24:46.899Z,15.10
2019-05-25T01:27:14.125Z,18.25
2019-05-25T01:29:41.302Z,15.63
2019-05-25T01:32:09.989Z,17.12
2019-05-25T01:34:37.270Z,18.05
2019-05-25T01:37:04.493Z,19.12
2019-05-25T01:39:31.921Z,23.22
2019-05-25T01:41:59.241Z,22.80
2019-05-25T01:44:26.182Z,17.98
2019-05-25T01:46:53.328Z,23.92
2019-05-25T01:49:20.544Z,22.95
2019-05-25T01:51:47.830Z,24.52
2019-05-25T01:54:14.986Z,23.50
2019-05-25T01:56:42.027Z,22.35
2019-05-25T01:59:10.520Z,20.62
2019-05-25T02:01:37.671Z,21.95
2019-05-25T02:04:04.750Z,20.08
2019-05-25T02:06:32.131Z,20.43
2019-05-25T02:08:59.226Z,20.45
2019-05-25T02:11:29.500Z,24.63
2019-05-25T02:13:56.722Z,22.87
2019-05-25T02:16:24.629Z,25.43
2019-05-25T02:18:51.812Z,22.80
2019-05-25T02:21:18.963Z,23.55
2019-05-25T02:23:46.118Z,22.42
2019-05-25T02:26:15.826Z,20.55
2019-05-25T02:28:43.281Z,25.37
2019-05-25T02:31:10.911Z,24.07
2019-05-25T02:33:38.089Z,22.52
2019-05-25T02:36:05.225Z,24.90
2019-05-25T02:38:32.399Z,27.55
2019-05-25T02:41:00.064Z,24.23
2019-05-25T02:43:27.011Z,22.10
2019-05-25T02:45:54.053Z,24.63
2019-05-25T02:48:21.611Z,23.77
2019-05-25T02:50:48.916Z,23.62
2019-05-25T02:53:16.015Z,26.20
2019-05-25T02:55:43.047Z,25.77
2019-05-25T02:58:10.031Z,21.35
2019-05-25T03:00:36.811Z,26.52
2019-05-25T03:03:04.347Z,23.00
2019-05-25T03:05:31.642Z,24.87
2019-05-25T03:07:58.669Z,27.07
2019-05-25T03:10:25.915Z,23.90
2019-05-25T03:12:54.415Z,24.20
2019-05-25T03:15:21.714Z,25.85
2019-05-25T03:17:49.209Z,27.62
2019-05-25T03:20:16.433Z,29.55
2019-05-25T03:22:44.297Z,28.70
2019-05-25T03:25:12.361Z,24.65
2019-05-25T03:27:39.606Z,27.32
2019-05-25T03:30:08.262Z,26.52
2019-05-25T03:32:38.797Z,26.90
2019-05-25T03:35:07.049Z,31.12
2019-05-25T03:37:34.538Z,28.02
2019-05-25T03:40:02.378Z,29.85
2019-05-25T03:42:51.144Z,35.05
2019-05-25T03:45:20.733Z,30.35
2019-05-25T03:47:48.201Z,29.80
2019-05-25T03:50:15.644Z,29.37
2019-05-25T03:52:42.699Z,28.47
2019-05-25T03:55:09.987Z,32.63
2019-05-25T03:57:36.961Z,28.07
2019-05-25T04:00:07.358Z,28.17
2019-05-25T04:02:34.235Z,25.27
2019-05-25T04:05:01.218Z,26.07
2019-05-25T04:07:28.646Z,29.67
2019-05-25T04:09:55.998Z,26.95
2019-05-25T04:12:23.266Z,24.05
2019-05-25T04:14:49.936Z,26.90
2019-05-25T04:17:17.225Z,29.00
2019-05-25T04:19:44.292Z,25.32
2019-05-25T04:22:11.665Z,24.85
2019-05-25T04:24:38.608Z,27.65
2019-05-25T04:27:06.912Z,28.02
2019-05-25T04:29:33.728Z,23.87
2019-05-25T04:32:00.802Z,27.32
2019-05-25T04:34:28.198Z,24.98
2019-05-25T04:36:55.283Z,24.32
2019-05-25T04:39:22.331Z,21.97
2019-05-25T04:41:49.123Z,23.67
2019-05-25T04:44:16.323Z,24.10
2019-05-25T04:46:43.354Z,25.08
2019-05-25T04:49:10.525Z,27.87
2019-05-25T04:51:37.599Z,27.27
2019-05-25T04:54:04.607Z,23.98
2019-05-25T04:56:39.396Z,24.07
2019-05-25T04:59:00.911Z,25.05
2019-05-25T05:01:28.204Z,23.75
2019-05-25T05:03:55.163Z,25.62
2019-05-25T05:06:22.242Z,24.82
2019-05-25T05:08:49.435Z,25.20
2019-05-25T05:11:16.507Z,26.10
2019-05-25T05:13:43.447Z,29.40
2019-05-25T05:16:10.779Z,26.95
2019-05-25T05:18:37.773Z,28.70
2019-05-25T05:21:04.393Z,26.73
2019-05-25T05:23:35.898Z,25.17
2019-05-25T05:26:06.817Z,26.37
2019-05-25T05:28:33.816Z,29.87
2019-05-25T05:31:00.727Z,25.95
2019-05-25T05:33:27.539Z,26.25
2019-05-25T05:35:55.333Z,29.12
2019-05-25T05:38:23.172Z,26.02
2019-05-25T05:40:51.298Z,25.00
2019-05-25T05:43:19.726Z,24.82
2019-05-25T05:45:47.743Z,28.27
2019-05-25T05:48:19.558Z,23.15
2019-05-25T05:50:50.078Z,27.07
2019-05-25T05:53:18.746Z,23.27
2019-05-25T05:55:45.507Z,20.48
2019-05-25T05:58:12.443Z,20.43
2019-05-25T06:00:39.457Z,18.48
2019-05-25T06:03:08.112Z,20.75
2019-05-25T06:05:47.804Z,21.90
2019-05-25T06:08:15.123Z,21.23
2019-05-25T06:10:42.069Z,23.67
2019-05-25T06:13:09.517Z,15.50
2019-05-25T06:15:36.521Z,18.50
2019-05-25T06:18:03.512Z,19.27
2019-05-25T06:20:30.213Z,16.40
2019-05-25T06:22:57.023Z,21.95
2019-05-25T06:25:23.987Z,13.28
2019-05-25T06:27:50.551Z,19.98
2019-05-25T06:30:18.265Z,13.90
2019-05-25T06:32:47.077Z,20.25
2019-05-25T06:35:15.824Z,17.40
2019-05-25T06:37:43.191Z,21.07
2019-05-25T06:40:10.381Z,17.05
2019-05-25T06:42:37.751Z,16.82
2019-05-25T06:45:05.819Z,15.95
2019-05-25T06:47:33.231Z,18.30
2019-05-25T06:50:00.156Z,18.15
2019-05-25T06:52:27.042Z,18.98
2019-05-25T06:54:53.908Z,18.67
2019-05-25T06:57:20.708Z,19.00
2019-05-25T06:59:47.623Z,16.77
2019-05-25T07:02:14.991Z,19.00
2019-05-25T07:04:41.868Z,16.60
2019-05-25T07:07:13.772Z,19.45
2019-05-25T07:09:43.804Z,14.65
2019-05-25T07:12:10.996Z,16.95
2019-05-25T07:14:37.880Z,16.82
2019-05-25T07:17:06.730Z,16.07
2019-05-25T07:19:35.476Z,15.75
2019-05-25T07:22:05.732Z,16.25
2019-05-25T07:24:32.604Z,14.70
2019-05-25T07:27:01.479Z,16.87
2019-05-25T07:29:30.259Z,15.63
2019-05-25T07:32:06.291Z,18.55
2019-05-25T07:34:33.674Z,17.77
2019-05-25T07:37:03.095Z,14.65
2019-05-25T07:39:30.099Z,14.95
2019-05-25T07:41:56.958Z,17.98
2019-05-25T07:44:23.709Z,12.95
2019-05-25T07:46:50.487Z,15.85
2019-05-25T07:49:17.565Z,18.40
2019-05-25T07:51:44.593Z,21.10
2019-05-25T07:54:11.696Z,17.07
2019-05-25T07:56:38.436Z,17.20
2019-05-25T07:59:05.483Z,16.37
2019-05-25T08:01:32.193Z,16.57
2019-05-25T08:03:59.272Z,18.00
2019-05-25T08:06:26.087Z,16.73
2019-05-25T08:08:53.437Z,14.58
2019-05-25T08:11:20.666Z,16.42
2019-05-25T08:13:47.447Z,17.40
2019-05-25T08:16:14.508Z,22.30
2019-05-25T08:18:41.270Z,36.63
2019-05-25T08:21:07.921Z,19.60
2019-05-25T08:23:35.035Z,23.60
2019-05-25T08:26:01.877Z,19.75
2019-05-25T08:28:32.775Z,23.50
2019-05-25T08:31:01.154Z,21.35
2019-05-25T08:33:26.183Z,20.52
2019-05-25T08:35:53.319Z,20.72
2019-05-25T08:38:20.126Z,19.77
2019-05-25T08:40:47.161Z,17.87
2019-05-25T08:43:14.166Z,23.45
2019-05-25T08:45:41.229Z,22.77
2019-05-25T08:48:08.371Z,20.48
2019-05-25T08:50:38.229Z,21.95
2019-05-25T08:53:04.400Z,24.37
2019-05-25T08:55:31.571Z,21.35
2019-05-25T08:57:58.411Z,26.68
2019-05-25T09:00:25.190Z,26.23
2019-05-25T09:02:52.176Z,36.25
2019-05-25T09:05:18.817Z,39.25
2019-05-25T09:07:45.479Z,33.35
2019-05-25T09:10:13.066Z,30.85
2019-05-25T09:12:43.033Z,27.80
2019-05-25T09:15:12.037Z,24.20
2019-05-25T09:17:39.214Z,28.92
2019-05-25T09:20:07.857Z,22.65
2019-05-25T09:22:35.122Z,23.22
2019-05-25T09:25:03.658Z,21.35
2019-05-25T09:27:30.563Z,18.50
2019-05-25T09:29:59.250Z,13.93
2019-05-25T09:32:28.140Z,11.97
2019-05-25T09:34:55.115Z,16.45
2019-05-25T09:37:22.013Z,16.37
2019-05-25T09:39:48.674Z,13.53
2019-05-25T09:42:15.248Z,13.68
2019-05-25T09:44:41.802Z,13.58
2019-05-25T09:47:08.354Z,13.08
2019-05-25T09:49:35.096Z,14.45
2019-05-25T09:52:01.934Z,17.30
2019-05-25T09:54:28.497Z,11.43
2019-05-25T09:56:54.988Z,12.58
2019-05-25T09:59:21.443Z,7.80
2019-05-25T10:01:48.167Z,11.53
2019-05-25T10:04:21.318Z,10.28
2019-05-25T10:06:47.836Z,8.63
2019-05-25T10:09:14.242Z,9.68
2019-05-25T10:11:40.757Z,8.18
2019-05-25T10:14:07.565Z,6.97
2019-05-25T10:16:34.385Z,7.22
2019-05-25T10:19:01.129Z,9.15
2019-05-25T10:21:27.605Z,9.58
2019-05-25T10:23:54.099Z,6.97
2019-05-25T10:26:23.018Z,8.38
2019-05-25T10:28:48.933Z,7.12
2019-05-25T10:31:15.429Z,8.68
2019-05-25T10:33:42.199Z,7.87
2019-05-25T10:36:08.790Z,8.30
2019-05-25T10:38:35.370Z,10.48
2019-05-25T10:41:01.869Z,12.18
2019-05-25T10:43:28.335Z,11.65
2019-05-25T10:45:54.989Z,9.65
2019-05-25T10:48:21.514Z,11.10
2019-05-25T10:50:48.118Z,10.40
2019-05-25T10:53:14.964Z,9.63
2019-05-25T10:55:41.628Z,11.03
2019-05-25T10:58:08.263Z,11.08
2019-05-25T11:00:34.894Z,12.53
2019-05-25T11:03:01.619Z,11.15
2019-05-25T11:05:28.423Z,12.53
2019-05-25T11:07:55.330Z,9.38
2019-05-25T11:10:22.014Z,10.05
2019-05-25T11:12:49.011Z,10.48
2019-05-25T11:15:16.261Z,9.83
2019-05-25T11:17:43.007Z,9.25
2019-05-25T11:20:10.941Z,9.15
2019-05-25T11:22:37.651Z,9.05
2019-05-25T11:25:06.807Z,8.43
2019-05-25T11:27:33.330Z,6.60
2019-05-25T11:30:09.136Z,7.33
2019-05-25T11:32:30.241Z,7.87
2019-05-25T11:34:57.893Z,7.83
2019-05-25T11:37:24.517Z,10.38
2019-05-25T11:39:51.121Z,11.97
2019-05-25T11:42:17.516Z,11.63
2019-05-25T11:44:44.587Z,9.08
2019-05-25T11:47:10.981Z,8.80
2019-05-25T11:49:37.766Z,8.48
2019-05-25T11:52:04.595Z,8.43
2019-05-25T11:54:32.722Z,10.70
2019-05-25T11:57:01.398Z,12.00
2019-05-25T11:59:27.882Z,12.60
2019-05-25T12:01:54.390Z,14.20
2019-05-25T12:04:20.906Z,13.00
2019-05-25T12:06:47.435Z,14.47
2019-05-25T12:09:15.262Z,15.13
2019-05-25T12:11:41.806Z,12.07
2019-05-25T12:14:08.399Z,14.23
2019-05-25T12:16:34.863Z,12.23
2019-05-25T12:19:03.035Z,16.25
2019-05-25T12:21:29.820Z,13.68
2019-05-25T12:23:56.558Z,14.30
2019-05-25T12:26:24.487Z,14.83
2019-05-25T12:28:51.115Z,13.80
2019-05-25T12:31:17.704Z,13.18
2019-05-25T12:33:44.187Z,16.12
2019-05-25T12:36:11.448Z,12.78
2019-05-25T12:38:38.024Z,14.15
2019-05-25T12:41:04.642Z,11.85
2019-05-25T12:43:31.193Z,10.38
2019-05-25T12:45:58.481Z,7.83
2019-05-25T12:48:25.018Z,7.87
2019-05-25T12:50:51.651Z,9.20
2019-05-25T12:53:18.180Z,11.22
2019-05-25T12:55:44.598Z,14.28
2019-05-25T12:58:11.505Z,17.62
2019-05-25T13:00:37.975Z,8.05
2019-05-25T13:03:04.637Z,9.13
2019-05-25T13:05:34.508Z,10.20
2019-05-25T13:07:59.673Z,9.40
2019-05-25T13:10:26.294Z,8.05
2019-05-25T13:12:52.855Z,7.72
2019-05-25T13:15:19.503Z,8.23
2019-05-25T13:17:45.956Z,8.85
2019-05-25T13:20:12.923Z,12.68
2019-05-25T13:22:40.977Z,14.68
2019-05-25T13:25:08.084Z,14.83
2019-05-25T13:27:34.801Z,15.35
2019-05-25T13:30:03.931Z,14.75
2019-05-25T13:32:30.566Z,16.65
2019-05-25T13:34:57.003Z,16.70
2019-05-25T13:37:23.446Z,19.25
2019-05-25T13:39:49.888Z,16.75
2019-05-25T13:42:17.532Z,12.47
2019-05-25T13:44:43.963Z,14.55
2019-05-25T13:47:10.575Z,13.03
2019-05-25T13:49:37.032Z,14.63
2019-05-25T13:52:03.550Z,15.90
2019-05-25T13:54:30.452Z,17.35
2019-05-25T13:56:57.528Z,19.65
2019-05-25T13:59:26.055Z,26.10
2019-05-25T14:01:52.645Z,40.05
2019-05-25T14:04:19.131Z,33.83
2019-05-25T14:06:45.713Z,28.27
2019-05-25T14:09:15.857Z,32.48
2019-05-25T14:11:41.604Z,34.95
2019-05-25T14:14:10.001Z,35.08
2019-05-25T14:16:38.654Z,36.60
2019-05-25T14:19:07.283Z,38.05
2019-05-25T14:21:33.664Z,40.05
2019-05-25T14:24:00.356Z,37.88
2019-05-25T14:26:26.960Z,38.80
2019-05-25T14:28:53.580Z,36.35
2019-05-25T14:31:20.176Z,35.68
2019-05-25T14:33:47.241Z,37.03
2019-05-25T14:36:14.830Z,34.20
2019-05-25T14:38:41.617Z,36.23
2019-05-25T14:41:09.191Z,33.25
2019-05-25T14:43:36.442Z,33.38
2019-05-25T14:46:03.536Z,38.98
2019-05-25T14:48:30.174Z,39.73
2019-05-25T14:50:56.669Z,35.30
2019-05-25T14:53:23.121Z,32.60
2019-05-25T14:55:49.671Z,34.05
2019-05-25T14:58:16.208Z,32.73
2019-05-25T15:00:43.079Z,32.53
2019-05-25T15:03:09.664Z,32.80
2019-05-25T15:05:36.300Z,31.77
2019-05-25T15:08:02.980Z,31.02
2019-05-25T15:10:30.162Z,31.77
2019-05-25T15:12:56.975Z,32.38
2019-05-25T15:15:23.438Z,30.72
2019-05-25T15:17:49.939Z,31.35
2019-05-25T15:20:17.576Z,33.18
2019-05-25T15:22:46.815Z,33.50
2019-05-25T15:25:12.929Z,33.00
2019-05-25T15:27:40.533Z,32.45
2019-05-25T15:30:08.753Z,31.48
2019-05-25T15:32:35.324Z,31.10
2019-05-25T15:35:03.499Z,32.53
2019-05-25T15:37:31.626Z,31.60
2019-05-25T15:39:58.179Z,33.60
2019-05-25T15:42:26.448Z,31.70
2019-05-25T15:44:56.489Z,32.20
2019-05-25T15:47:22.907Z,34.92
2019-05-25T15:49:49.454Z,32.65
2019-05-25T15:52:15.918Z,33.13
2019-05-25T15:54:42.491Z,32.73
2019-05-25T15:57:09.117Z,34.90
2019-05-25T15:59:35.615Z,33.73
2019-05-25T16:02:05.395Z,30.92
2019-05-25T16:04:33.970Z,32.05
2019-05-25T16:07:00.634Z,34.73
2019-05-25T16:09:27.256Z,29.95
2019-05-25T16:11:53.755Z,33.65
2019-05-25T16:14:20.291Z,34.43
2019-05-25T16:16:46.990Z,32.10
2019-05-25T16:19:13.355Z,32.33
2019-05-25T16:21:39.979Z,32.25
2019-05-25T16:24:09.864Z,31.80
2019-05-25T16:26:45.693Z,35.85
2019-05-25T16:29:04.636Z,33.53
2019-05-25T16:31:31.179Z,29.75
2019-05-25T16:33:57.671Z,25.50
2019-05-25T16:36:24.283Z,25.62
2019-05-25T16:38:50.988Z,24.98
2019-05-25T16:41:17.911Z,25.23
2019-05-25T16:43:44.497Z,24.87
2019-05-25T16:46:14.474Z,25.82
2019-05-25T16:48:41.340Z,26.48
2019-05-25T16:51:08.233Z,24.18
2019-05-25T16:53:34.832Z,28.30
2019-05-25T16:56:01.323Z,27.05
2019-05-25T16:58:28.060Z,30.08
2019-05-25T17:00:54.603Z,27.17
2019-05-25T17:03:27.995Z,26.27
2019-05-25T17:05:49.481Z,28.15
2019-05-25T17:08:17.445Z,25.50
2019-05-25T17:10:44.226Z,26.12
2019-05-25T17:13:11.331Z,27.07
2019-05-25T17:15:37.894Z,30.57
2019-05-25T17:18:05.626Z,27.17
2019-05-25T17:20:33.729Z,27.77
2019-05-25T17:23:00.372Z,27.70
2019-05-25T17:25:26.953Z,29.12
2019-05-25T17:27:53.405Z,28.35
2019-05-25T17:30:38.602Z,26.90
2019-05-25T17:33:05.441Z,25.75
2019-05-25T17:35:32.315Z,26.97
2019-05-25T17:37:58.765Z,27.52
2019-05-25T17:40:25.185Z,26.42
2019-05-25T17:42:51.820Z,26.10
2019-05-25T17:45:18.579Z,25.27
2019-05-25T17:47:45.192Z,24.12
2019-05-25T17:50:11.979Z,25.45
2019-05-25T17:52:38.453Z,28.83
2019-05-25T17:55:07.071Z,24.67
2019-05-25T17:57:33.621Z,25.25
2019-05-25T18:00:00.250Z,21.80
2019-05-25T18:02:26.880Z,22.98
2019-05-25T18:04:53.510Z,25.08
2019-05-25T18:07:20.014Z,23.98
2019-05-25T18:09:47.748Z,23.77
2019-05-25T18:12:14.296Z,23.07
2019-05-25T18:14:41.939Z,23.77
2019-05-25T18:17:08.719Z,26.12
2019-05-25T18:19:35.399Z,27.02
2019-05-25T18:22:02.012Z,25.23
2019-05-25T18:24:28.689Z,26.65
2019-05-25T18:26:55.478Z,27.60
2019-05-25T18:29:23.944Z,28.75
2019-05-25T18:31:51.266Z,26.35
2019-05-25T18:34:21.990Z,29.60
2019-05-25T18:36:46.122Z,29.92
2019-05-25T18:39:12.702Z,30.05
2019-05-25T18:41:39.315Z,33.65
2019-05-25T18:44:05.985Z,30.25
2019-05-25T18:46:32.581Z,31.82
2019-05-25T18:48:59.517Z,35.00
2019-05-25T18:51:26.430Z,32.28
2019-05-25T18:53:52.965Z,33.53
2019-05-25T18:56:19.614Z,31.07
2019-05-25T18:58:46.156Z,31.75
2019-05-25T19:01:13.018Z,33.55
2019-05-25T19:03:39.684Z,33.15
2019-05-25T19:06:06.591Z,33.60
2019-05-25T19:08:33.104Z,36.73
2019-05-25T19:11:00.091Z,33.48
2019-05-25T19:13:27.252Z,31.85
2019-05-25T19:15:54.189Z,35.17
2019-05-25T19:18:20.817Z,35.38
2019-05-25T19:20:47.447Z,35.13
2019-05-25T19:23:14.309Z,35.08
2019-05-25T19:25:40.817Z,37.23
2019-05-25T19:28:07.473Z,37.65
2019-05-25T19:30:34.084Z,37.33
2019-05-25T19:33:00.742Z,38.55
2019-05-25T19:35:27.954Z,38.73
2019-05-25T19:37:54.616Z,38.23
2019-05-25T19:40:21.474Z,36.75
2019-05-25T19:42:49.929Z,36.28
2019-05-25T19:45:21.624Z,34.63
2019-05-25T19:47:51.709Z,33.23
2019-05-25T19:50:18.674Z,36.63
2019-05-25T19:52:45.640Z,36.70
2019-05-25T19:55:12.886Z,41.05
2019-05-25T19:57:45.072Z,37.30
2019-05-25T20:00:12.543Z,36.08
2019-05-25T20:02:41.124Z,33.05
2019-05-25T20:05:17.030Z,35.05
2019-05-25T20:07:47.557Z,35.35
2019-05-25T20:10:17.563Z,32.65
2019-05-25T20:12:47.861Z,34.92
2019-05-25T20:15:16.362Z,29.47
2019-05-25T20:17:46.487Z,33.13
2019-05-25T20:20:15.283Z,33.20
2019-05-25T20:22:42.123Z,30.90
2019-05-25T20:25:09.091Z,32.65
2019-05-25T20:27:35.653Z,29.18
2019-05-25T20:30:05.106Z,28.77
2019-05-25T20:32:31.959Z,26.15
2019-05-25T20:34:58.505Z,27.50
2019-05-25T20:37:25.244Z,28.90
2019-05-25T20:39:52.191Z,28.62
2019-05-25T20:42:18.846Z,25.90
2019-05-25T20:44:45.722Z,30.25
2019-05-25T20:47:12.711Z,28.83
2019-05-25T20:49:39.282Z,31.75
2019-05-25T20:52:08.214Z,34.55
2019-05-25T20:54:34.925Z,32.05
2019-05-25T20:57:04.216Z,33.70
2019-05-25T20:59:32.609Z,32.80
2019-05-25T21:01:59.133Z,31.85
2019-05-25T21:04:25.703Z,33.10
2019-05-25T21:06:52.562Z,35.17
2019-05-25T21:09:19.406Z,37.30
2019-05-25T21:11:46.114Z,36.00
2019-05-25T21:14:12.742Z,37.40
2019-05-25T21:16:39.731Z,38.23
2019-05-25T21:19:07.776Z,36.13
2019-05-25T21:21:34.625Z,39.78
2019-05-25T21:24:01.300Z,40.28
2019-05-25T21:26:28.161Z,40.35
2019-05-25T21:28:54.783Z,44.65
2019-05-25T21:31:23.930Z,46.53
2019-05-25T21:33:50.322Z,45.05
2019-05-25T21:36:16.772Z,43.35
2019-05-25T21:38:43.281Z,43.42
2019-05-25T21:41:09.698Z,44.98
2019-05-25T21:43:36.336Z,47.43
2019-05-25T21:46:03.472Z,47.38
2019-05-25T21:48:31.965Z,47.73
2019-05-25T21:50:58.909Z,53.87
2019-05-25T21:53:25.563Z,49.33
2019-05-25T21:55:53.267Z,51.48
2019-05-25T21:58:19.877Z,48.83
2019-05-25T22:00:48.264Z,52.67
2019-05-25T22:03:15.735Z,51.85
2019-05-25T22:05:42.759Z,49.63
2019-05-25T22:08:09.792Z,49.83
2019-05-25T22:10:36.747Z,52.38
2019-05-25T22:13:04.014Z,50.00
2019-05-25T22:15:34.135Z,51.02
2019-05-25T22:18:00.926Z,48.85
2019-05-25T22:20:28.484Z,47.98
2019-05-25T22:22:55.229Z,50.20
2019-05-25T22:25:22.910Z,49.33
2019-05-25T22:27:51.423Z,55.40
2019-05-25T22:30:19.890Z,52.98
2019-05-25T22:32:46.804Z,55.48
2019-05-25T22:35:14.174Z,55.92
2019-05-25T22:37:40.932Z,53.30
2019-05-25T22:40:08.430Z,56.92
2019-05-25T22:42:35.324Z,51.53
2019-05-25T22:45:03.287Z,53.20
2019-05-25T22:47:30.164Z,54.05
2019-05-25T22:49:57.041Z,53.68
2019-05-25T22:52:23.839Z,57.98
2019-05-25T22:54:50.742Z,55.78
2019-05-25T22:57:17.785Z,57.23
2019-05-25T22:59:45.710Z,56.13
2019-05-25T23:02:13.834Z,57.20
2019-05-25T23:04:40.818Z,57.95
2019-05-25T23:07:08.729Z,54.25
2019-05-25T23:09:35.268Z,54.45
2019-05-25T23:12:01.985Z,54.77
2019-05-25T23:14:28.750Z,55.03
2019-05-25T23:16:55.313Z,54.70
2019-05-25T23:19:22.059Z,56.40
2019-05-25T23:21:49.125Z,55.55
2019-05-25T23:24:16.107Z,56.00
2019-05-25T23:26:42.827Z,57.78
2019-05-25T23:29:09.835Z,59.58
2019-05-25T23:31:36.860Z,59.20
2019-05-25T23:34:03.745Z,56.70
2019-05-25T23:36:30.692Z,59.48
2019-05-25T23:38:57.594Z,56.50
2019-05-25T23:41:24.345Z,57.90
2019-05-25T23:43:51.914Z,56.80
2019-05-25T23:46:18.448Z,53.98
2019-05-25T23:48:45.354Z,54.93
2019-05-25T23:51:14.710Z,57.05
2019-05-25T23:53:41.759Z,55.78
2019-05-25T23:56:08.955Z,53.92
2019-05-25T23:58:35.566Z,51.55
